Time;durP1;ratioP1;P1;durP2;ratioP2;P2;SDS_P1;SDS_P2;PMS_P1;PMS_P2;Temp;Humidity;BMP_temperature;BMP_pressure;BME280_temperature;BME280_humidity;BME280_pressure;Samples;Min_cycle;Max_cycle;Signal;HPM_P1;HPM_P2
2022/04/06 00:01:31;;;;;;;;;2.25;2.00;;;;;11.68;60.00;100496.50;4973469;28;45207;-54
2022/04/06 00:03:56;;;;;;;;;4.00;2.00;;;;;11.62;59.35;100486.22;4973234;28;45386;-50
2022/04/06 00:06:22;;;;;;;;;1.00;1.00;;;;;11.66;59.10;100490.41;4972998;28;45342;-55
2022/04/06 00:08:47;;;;;;;;;2.00;2.00;;;;;11.65;59.45;100486.03;4973354;28;45479;-51
2022/04/06 00:11:12;;;;;;;;;8.25;4.50;;;;;11.62;59.43;100485.38;5024640;27;45366;-56
2022/04/06 00:13:38;;;;;;;;;3.00;2.00;;;;;11.56;58.93;100486.59;5060932;27;45589;-55
2022/04/06 00:16:03;;;;;;;;;1.00;1.00;;;;;11.52;58.60;100493.06;4988313;27;45500;-56
2022/04/06 00:18:29;;;;;;;;;2.00;2.00;;;;;11.51;58.16;100484.22;4973881;28;45777;-50
2022/04/06 00:20:54;;;;;;;;;2.00;1.00;;;;;11.50;58.57;100479.84;4973645;28;45445;-55
2022/04/06 00:23:20;;;;;;;;;2.00;1.00;;;;;11.49;58.41;100479.94;4973971;28;45615;-52
2022/04/06 00:25:45;;;;;;;;;1.00;1.00;;;;;11.47;58.18;100473.88;4973026;28;45977;-57
2022/04/06 00:28:10;;;;;;;;;2.00;1.00;;;;;11.42;58.31;100471.47;4973536;28;45510;-55
2022/04/06 00:30:36;;;;;;;;;2.50;1.00;;;;;11.39;58.20;100471.66;4973494;28;45456;-54
2022/04/06 00:33:01;;;;;;;;;1.50;0.50;;;;;11.38;57.98;100466.44;4974289;28;45373;-54
2022/04/06 00:35:31;;;;;;;;;2.00;2.00;;;;;11.36;58.56;100469.19;4973902;28;45352;-48
2022/04/06 00:37:58;;;;;;;;;2.00;1.00;;;;;11.33;58.40;100464.06;4987330;27;45466;-54
2022/04/06 00:40:23;;;;;;;;;0.33;0.33;;;;;11.30;58.47;100469.56;4974874;28;45448;-58
2022/04/06 00:42:50;;;;;;;;;1.00;1.00;;;;;11.27;58.04;100459.09;4984733;28;45570;-55
2022/04/06 00:45:15;;;;;;;;;1.00;1.00;;;;;11.16;58.00;100454.41;4985683;27;46088;-53
2022/04/06 00:47:41;;;;;;;;;1.33;1.33;;;;;11.09;58.17;100450.44;4954359;28;45405;-53
2022/04/06 00:50:07;;;;;;;;;2.33;1.00;;;;;11.08;58.94;100448.72;4969850;28;45479;-51
2022/04/06 00:52:33;;;;;;;;;2.00;1.00;;;;;11.08;58.92;100455.84;4973545;28;45330;-52
2022/04/06 00:55:00;;;;;;;;;4.00;1.00;;;;;10.97;59.76;100437.00;4972510;28;46158;-60
2022/04/06 00:57:25;;;;;;;;;1.50;1.50;;;;;10.95;59.53;100431.78;4972215;28;45275;-53
2022/04/06 00:59:52;;;;;;;;;0.50;0.00;;;;;10.96;59.87;100449.47;4973032;28;45237;-53
2022/04/06 01:02:17;;;;;;;;;3.25;2.00;;;;;10.90;59.88;100444.50;4973317;28;45518;-55
2022/04/06 01:04:43;;;;;;;;;1.75;1.00;;;;;10.73;60.00;100418.03;4972716;28;45467;-52
2022/04/06 01:07:09;;;;;;;;;3.00;1.00;;;;;10.89;60.53;100450.75;4988221;27;45403;-54
2022/04/06 01:09:35;;;;;;;;;1.25;1.25;;;;;10.82;59.79;100444.09;4972635;28;45372;-53
2022/04/06 01:12:02;;;;;;;;;1.25;1.00;;;;;10.78;60.84;100431.91;4995997;28;45510;-53
2022/04/06 01:14:27;;;;;;;;;3.25;1.00;;;;;10.75;60.75;100437.44;4971531;28;47261;-55
2022/04/06 01:17:01;;;;;;;;;3.00;1.00;;;;;10.72;60.48;100440.28;4972830;28;45492;-55
2022/04/06 01:19:38;;;;;;;;;1.00;1.00;;;;;10.66;61.26;100430.84;4973091;28;45737;-55
2022/04/06 01:22:11;;;;;;;;;0.00;0.00;;;;;10.57;61.45;100426.94;4972884;28;45400;-53
2022/04/06 01:24:38;;;;;;;;;3.50;1.00;;;;;10.52;61.43;100423.66;4971494;28;46165;-52
2022/04/06 01:27:04;;;;;;;;;2.00;2.00;;;;;10.46;61.39;100412.56;4973989;28;45362;-52
2022/04/06 01:29:31;;;;;;;;;0.50;0.50;;;;;10.46;61.55;100424.03;4974949;28;45557;-51
2022/04/06 01:32:10;;;;;;;;;1.50;1.50;;;;;10.38;61.37;100420.97;4975388;28;45251;-52
2022/04/06 01:34:39;;;;;;;;;2.00;2.00;;;;;10.37;61.93;100419.25;4975379;28;45693;-50
2022/04/06 01:37:06;;;;;;;;;1.00;1.00;;;;;10.28;61.94;100415.31;4975485;28;45169;-55
2022/04/06 01:39:33;;;;;;;;;1.00;1.00;;;;;10.30;62.60;100425.88;4975008;28;45550;-54
2022/04/06 01:41:58;;;;;;;;;1.50;1.00;;;;;10.22;61.94;100417.47;4976047;28;45539;-52
2022/04/06 01:44:24;;;;;;;;;2.25;1.00;;;;;10.25;62.49;100427.94;4974317;28;45391;-54
2022/04/06 01:46:52;;;;;;;;;2.75;1.50;;;;;10.19;61.86;100420.28;4975772;28;45333;-55
2022/04/06 01:52:17;;;;;;;;;4.50;0.50;;;;;10.12;62.57;100417.09;4976561;28;45365;-54
2022/04/06 01:54:47;;;;;;;;;4.25;2.00;;;;;10.10;62.49;100421.66;4970430;28;46175;-54
2022/04/06 01:57:14;;;;;;;;;2.00;0.00;;;;;10.07;62.14;100410.34;4974223;27;45949;-52
2022/04/06 01:59:41;;;;;;;;;1.50;1.50;;;;;10.03;62.61;100405.22;4975696;28;45355;-51
2022/04/06 02:02:07;;;;;;;;;0.00;0.00;;;;;9.98;63.07;100404.59;4975184;28;45531;-50
2022/04/06 02:04:33;;;;;;;;;1.00;1.00;;;;;9.96;62.20;100397.66;4974809;28;45438;-50
2022/04/06 02:06:58;;;;;;;;;0.00;0.00;;;;;9.95;62.95;100406.59;4985206;28;45459;-55
2022/04/06 02:09:24;;;;;;;;;2.75;1.00;;;;;9.93;63.11;100400.50;4977751;27;45500;-53
2022/04/06 02:11:50;;;;;;;;;0.75;0.75;;;;;9.90;62.52;100404.19;5005297;27;45592;-53
2022/04/06 02:14:16;;;;;;;;;2.00;0.75;;;;;9.86;63.40;100396.47;4975268;28;45527;-50
2022/04/06 02:16:42;;;;;;;;;0.50;0.50;;;;;9.83;62.22;100408.13;4973852;28;45342;-50
2022/04/06 02:19:09;;;;;;;;;0.00;0.00;;;;;9.80;62.34;100397.69;4975009;28;45218;-55
2022/04/06 02:21:34;;;;;;;;;1.00;1.00;;;;;9.79;62.62;100395.97;4975268;28;45564;-52
2022/04/06 02:23:59;;;;;;;;;1.00;1.00;;;;;9.75;63.29;100397.06;4975322;28;45568;-54
2022/04/06 02:26:27;;;;;;;;;0.00;0.00;;;;;9.67;63.06;100386.03;4975378;28;45447;-57
2022/04/06 02:28:53;;;;;;;;;1.00;1.00;;;;;9.73;62.83;100388.34;4975235;28;45235;-54
2022/04/06 02:31:18;;;;;;;;;0.00;0.00;;;;;9.76;62.66;100388.16;4974256;28;45340;-56
2022/04/06 02:33:44;;;;;;;;;1.00;1.00;;;;;9.75;63.05;100381.97;4975171;28;45477;-53
2022/04/06 02:36:09;;;;;;;;;1.75;1.00;;;;;9.75;61.92;100374.03;4975817;28;45309;-50
2022/04/06 02:38:38;;;;;;;;;0.00;0.00;;;;;9.83;62.47;100381.56;4975760;28;45441;-59
2022/04/06 02:41:05;;;;;;;;;0.00;0.00;;;;;9.82;62.29;100363.06;4975355;28;45235;-54
2022/04/06 02:43:31;;;;;;;;;0.50;0.50;;;;;9.86;61.49;100365.44;4975064;28;47040;-50
2022/04/06 02:45:57;;;;;;;;;5.25;0.00;;;;;9.91;62.19;100371.38;4974102;28;45463;-52
2022/04/06 02:48:22;;;;;;;;;2.00;0.00;;;;;9.90;62.24;100367.00;4974936;28;45319;-56
2022/04/06 02:50:47;;;;;;;;;0.00;0.00;;;;;9.96;61.16;100371.97;4975312;27;45730;-52
2022/04/06 02:53:13;;;;;;;;;0.00;0.00;;;;;9.92;62.14;100359.81;4973869;28;45873;-54
2022/04/06 02:55:38;;;;;;;;;0.00;0.00;;;;;9.97;61.98;100364.84;4974947;28;45316;-53
2022/04/06 02:58:03;;;;;;;;;0.00;0.00;;;;;10.01;61.70;100369.88;4974593;28;45462;-56
2022/04/06 03:00:32;;;;;;;;;1.00;0.00;;;;;10.01;61.37;100369.88;4974679;28;45497;-53
2022/04/06 03:02:58;;;;;;;;;0.00;0.00;;;;;10.05;61.58;100363.47;4974890;28;45373;-49
2022/04/06 03:05:24;;;;;;;;;0.50;0.50;;;;;10.09;61.40;100357.97;4974575;28;45241;-53
2022/04/06 03:07:51;;;;;;;;;0.00;0.00;;;;;10.11;61.46;100353.44;4974525;27;45235;-53
2022/04/06 03:10:16;;;;;;;;;1.00;1.00;;;;;10.07;61.37;100350.09;4975146;28;45556;-52
2022/04/06 03:12:41;;;;;;;;;0.50;0.50;;;;;10.14;61.41;100355.91;4977453;27;45656;-52
2022/04/06 03:15:07;;;;;;;;;0.00;0.00;;;;;10.11;61.78;100337.47;4972952;28;45765;-55
2022/04/06 03:17:33;;;;;;;;;0.00;0.00;;;;;10.17;61.57;100353.09;4974535;27;45711;-52
2022/04/06 03:19:58;;;;;;;;;0.00;0.00;;;;;10.19;61.00;100345.88;4974262;28;45416;-52
2022/04/06 03:22:23;;;;;;;;;2.25;0.00;;;;;10.22;61.22;100353.69;4974459;28;46128;-48
2022/04/06 03:24:51;;;;;;;;;0.00;0.00;;;;;10.25;60.95;100345.53;4973916;28;45334;-50
2022/04/06 03:27:16;;;;;;;;;0.00;0.00;;;;;10.25;61.38;100342.88;4974742;28;45351;-49
2022/04/06 03:29:42;;;;;;;;;0.00;0.00;;;;;10.25;61.59;100340.22;4973924;28;45492;-52
2022/04/06 03:32:08;;;;;;;;;0.00;0.00;;;;;10.25;60.79;100330.44;4974593;28;45472;-53
2022/04/06 03:34:34;;;;;;;;;0.00;0.00;;;;;10.24;61.34;100328.72;4972603;28;46789;-53
2022/04/06 03:36:59;;;;;;;;;1.00;0.00;;;;;10.23;60.52;100321.72;4974653;28;45228;-55
2022/04/06 03:39:24;;;;;;;;;0.00;0.00;;;;;10.23;61.00;100332.34;4972982;28;45401;-54
2022/04/06 03:41:50;;;;;;;;;0.00;0.00;;;;;10.23;60.97;100315.53;4973668;28;46078;-51
2022/04/06 03:44:16;;;;;;;;;0.00;0.00;;;;;10.24;61.12;100317.25;4974151;28;45324;-53
2022/04/06 03:46:41;;;;;;;;;0.00;0.00;;;;;10.29;61.19;100323.16;4975399;28;45357;-52
2022/04/06 03:49:07;;;;;;;;;0.00;0.00;;;;;10.24;61.09;100306.63;4974092;28;45386;-56
2022/04/06 03:51:33;;;;;;;;;0.00;0.00;;;;;10.28;60.50;100321.44;4973653;28;46301;-49
2022/04/06 03:53:58;;;;;;;;;0.00;0.00;;;;;10.30;60.72;100322.22;4974137;28;45283;-51
2022/04/06 03:56:24;;;;;;;;;0.50;0.00;;;;;10.30;60.38;100298.28;4974320;28;45522;-51
2022/04/06 03:58:49;;;;;;;;;0.00;0.00;;;;;10.31;60.58;100313.28;4974064;28;45515;-49
2022/04/06 04:01:15;;;;;;;;;1.00;0.00;;;;;10.25;60.41;100305.66;4973524;28;46291;-54
2022/04/06 04:03:40;;;;;;;;;0.00;0.00;;;;;10.30;60.45;100312.44;4984645;28;45721;-56
2022/04/06 04:06:06;;;;;;;;;0.00;0.00;;;;;10.32;60.59;100320.31;4974604;28;45477;-57
2022/04/06 04:08:32;;;;;;;;;0.00;0.00;;;;;10.33;61.23;100306.09;4974258;28;45472;-57
2022/04/06 04:10:57;;;;;;;;;1.50;0.00;;;;;10.33;60.21;100304.28;4984499;28;45993;-50
2022/04/06 04:13:23;;;;;;;;;0.00;0.00;;;;;10.30;60.85;100303.63;4973612;28;45449;-53
2022/04/06 04:15:48;;;;;;;;;0.00;0.00;;;;;10.31;60.70;100308.84;4973788;28;45347;-52
2022/04/06 04:18:14;;;;;;;;;0.00;0.00;;;;;10.33;61.04;100301.63;4974293;28;45364;-51
2022/04/06 04:20:45;;;;;;;;;1.00;0.00;;;;;10.32;61.26;100305.22;4973178;28;45243;-53
2022/04/06 04:23:11;;;;;;;;;0.00;0.00;;;;;10.27;61.20;100303.78;4974565;28;45891;-55
2022/04/06 04:25:37;;;;;;;;;0.50;0.00;;;;;10.33;60.60;100311.41;4974773;28;45472;-55
2022/04/06 04:28:05;;;;;;;;;0.75;0.00;;;;;10.25;60.64;100295.03;4974518;28;45496;-53
2022/04/06 04:30:34;;;;;;;;;0.00;0.00;;;;;10.19;61.56;100293.59;4973778;28;45964;-51
2022/04/06 04:32:59;;;;;;;;;0.00;0.00;;;;;10.25;61.38;100300.34;4973600;28;45429;-48
2022/04/06 04:35:24;;;;;;;;;0.00;0.00;;;;;10.24;61.00;100307.47;4970385;28;45792;-51
2022/04/06 04:37:50;;;;;;;;;0.00;0.00;;;;;10.26;60.99;100299.41;4973813;28;45602;-53
2022/04/06 04:40:20;;;;;;;;;0.50;0.00;;;;;10.28;61.65;100293.03;4972486;28;45438;-53
2022/04/06 04:42:46;;;;;;;;;0.00;0.00;;;;;10.27;61.23;100290.47;4974425;28;45434;-51
2022/04/06 04:45:11;;;;;;;;;0.00;0.00;;;;;10.28;61.59;100292.19;4973181;28;45481;-54
2022/04/06 04:47:38;;;;;;;;;1.50;0.00;;;;;10.31;60.97;100287.56;4974126;28;45651;-53
2022/04/06 04:50:05;;;;;;;;;0.00;0.00;;;;;10.34;61.03;100290.03;4973295;28;46341;-52
2022/04/06 04:52:31;;;;;;;;;0.00;0.00;;;;;10.31;60.74;100276.09;4973227;28;45539;-53
2022/04/06 04:54:56;;;;;;;;;0.00;0.00;;;;;10.31;59.68;100276.09;4972839;27;45463;-60
2022/04/06 04:57:22;;;;;;;;;2.00;0.25;;;;;10.35;60.73;100277.59;4973071;28;45619;-52
2022/04/06 04:59:47;;;;;;;;;0.00;0.00;;;;;10.39;61.08;100265.81;4972940;28;46188;-54
2022/04/06 05:02:12;;;;;;;;;0.00;0.00;;;;;10.38;60.56;100256.16;4975074;28;45275;-50
2022/04/06 05:04:38;;;;;;;;;0.00;0.00;;;;;10.41;59.83;100255.94;4976081;28;45974;-55
2022/04/06 05:07:03;;;;;;;;;0.00;0.00;;;;;10.41;60.29;100245.31;4976541;27;45303;-52
2022/04/06 05:09:29;;;;;;;;;0.00;0.00;;;;;10.52;60.55;100258.81;5043329;28;46868;-51
2022/04/06 05:11:55;;;;;;;;;0.00;0.00;;;;;10.52;60.33;100258.81;4975861;28;45235;-55
2022/04/06 05:14:20;;;;;;;;;1.50;0.00;;;;;10.54;59.81;100272.00;5002743;27;45311;-55
2022/04/06 05:16:45;;;;;;;;;0.00;0.00;;;;;10.52;60.16;100257.97;5009506;28;45514;-56
2022/04/06 05:19:11;;;;;;;;;1.25;1.25;;;;;10.56;59.57;100268.34;4976354;28;45897;-56
2022/04/06 05:21:36;;;;;;;;;0.00;0.00;;;;;10.56;59.94;100263.03;4975797;28;45307;-53
2022/04/06 05:24:04;;;;;;;;;1.75;1.00;;;;;10.60;60.52;100256.56;4975873;28;45290;-55
2022/04/06 05:26:30;;;;;;;;;1.00;1.00;;;;;10.58;60.63;100253.13;5040387;28;45577;-52
2022/04/06 05:28:55;;;;;;;;;1.00;0.00;;;;;10.57;60.26;100262.06;4975872;28;45472;-49
2022/04/06 05:31:21;;;;;;;;;2.00;2.00;;;;;10.59;60.02;100254.84;5002523;28;45397;-54
2022/04/06 05:33:47;;;;;;;;;1.00;1.00;;;;;10.61;60.38;100258.25;5078890;27;45455;-54
2022/04/06 05:36:12;;;;;;;;;1.25;1.00;;;;;10.58;60.17;100258.47;5072318;27;45433;-50
2022/04/06 05:38:38;;;;;;;;;2.25;0.50;;;;;10.66;60.00;100265.09;4977878;28;45524;-55
2022/04/06 05:41:03;;;;;;;;;2.00;0.50;;;;;10.66;60.38;100259.78;4987290;27;45536;-58
2022/04/06 05:43:29;;;;;;;;;2.25;1.00;;;;;10.62;60.43;100259.97;5032224;27;45271;-56
2022/04/06 05:45:55;;;;;;;;;1.00;1.00;;;;;10.67;60.46;100264.13;5012464;27;45408;-58
2022/04/06 05:48:20;;;;;;;;;1.25;1.25;;;;;10.65;60.05;100256.25;4976207;28;45689;-55
2022/04/06 05:50:46;;;;;;;;;2.50;2.00;;;;;10.62;60.76;100265.28;4975839;28;45613;-52
2022/04/06 05:53:11;;;;;;;;;1.00;1.00;;;;;10.54;61.04;100262.22;4976476;28;45255;-56
2022/04/06 05:55:37;;;;;;;;;2.00;1.00;;;;;10.53;60.91;100262.31;5030100;28;45274;-59
2022/04/06 05:58:03;;;;;;;;;2.25;1.00;;;;;10.52;61.40;100258.81;5078734;27;45850;-53
2022/04/06 06:00:28;;;;;;;;;2.25;1.00;;;;;10.47;61.55;100263.56;5094264;27;45550;-56
2022/04/06 06:02:54;;;;;;;;;1.00;1.00;;;;;10.44;61.92;100250.47;5060357;28;45343;-55
2022/04/06 06:05:20;;;;;;;;;2.00;1.50;;;;;10.39;62.17;100252.53;5040390;27;45836;-54
2022/04/06 06:07:45;;;;;;;;;1.00;1.00;;;;;10.40;61.81;100258.69;4974400;28;47500;-56
2022/04/06 06:10:11;;;;;;;;;1.00;1.00;;;;;10.37;62.09;100254.44;4973229;28;45565;-55
2022/04/06 06:12:36;;;;;;;;;3.00;1.75;;;;;10.40;62.12;100243.59;5075582;28;45342;-58
2022/04/06 06:15:06;;;;;;;;;1.25;1.25;;;;;10.45;62.07;100254.84;5079025;27;45369;-60
2022/04/06 06:17:36;;;;;;;;;6.00;2.00;;;;;10.44;61.87;100263.75;5078249;27;46081;-55
2022/04/06 06:20:02;;;;;;;;;3.00;2.00;;;;;10.36;62.48;100235.94;5070009;28;45416;-60
2022/04/06 06:22:27;;;;;;;;;5.00;3.00;;;;;10.37;61.92;100254.44;4975141;28;45398;-55
2022/04/06 06:24:55;;;;;;;;;2.00;2.00;;;;;10.37;62.47;100250.91;4975429;27;45352;-61
2022/04/06 06:27:22;;;;;;;;;1.50;1.50;;;;;10.31;62.96;100241.53;4974846;28;45417;-64
2022/04/06 06:29:50;;;;;;;;;2.00;2.00;;;;;10.12;63.33;100222.28;4967767;28;45511;-61
2022/04/06 06:32:17;;;;;;;;;5.00;2.50;;;;;10.24;63.12;100243.69;4976422;28;45379;-62
2022/04/06 06:34:43;;;;;;;;;3.00;1.75;;;;;10.33;62.19;100245.81;4963105;27;45375;-56
2022/04/06 06:37:10;;;;;;;;;1.00;1.00;;;;;10.32;62.42;100232.59;4972600;28;45396;-51
2022/04/06 06:39:36;;;;;;;;;5.75;1.00;;;;;10.31;62.82;100238.88;4975083;28;45224;-54
2022/04/06 06:42:04;;;;;;;;;1.00;1.00;;;;;10.26;63.28;100228.50;4975186;28;45327;-53
2022/04/06 06:44:29;;;;;;;;;7.25;1.25;;;;;10.30;62.30;100242.47;4985783;28;45467;-53
2022/04/06 06:46:55;;;;;;;;;2.50;2.50;;;;;10.30;63.23;100247.78;4994251;28;45476;-53
2022/04/06 06:49:20;;;;;;;;;1.00;1.00;;;;;10.20;63.42;100225.34;4988485;28;45389;-50
2022/04/06 06:51:45;;;;;;;;;1.75;1.75;;;;;10.40;62.39;100240.94;4970575;28;45600;-56
2022/04/06 06:54:11;;;;;;;;;1.75;1.75;;;;;10.44;62.58;100245.16;4955872;28;45706;-55
2022/04/06 06:56:40;;;;;;;;;1.75;1.75;;;;;10.38;61.94;100226.91;4955274;28;45819;-52
2022/04/06 06:59:05;;;;;;;;;2.00;1.00;;;;;10.48;62.43;100241.34;4954007;28;45760;-53
2022/04/06 07:01:30;;;;;;;;;4.75;3.00;;;;;10.57;61.89;100240.78;4955703;28;45264;-55
2022/04/06 07:03:56;;;;;;;;;2.00;0.50;;;;;10.58;61.54;100236.34;4955499;28;45185;-53
2022/04/06 07:06:21;;;;;;;;;2.25;2.00;;;;;10.56;61.93;100236.44;4954930;28;45349;-54
2022/04/06 07:08:47;;;;;;;;;2.00;2.00;;;;;10.64;61.23;100231.47;4987749;28;45259;-53
2022/04/06 07:11:12;;;;;;;;;5.00;3.00;;;;;10.65;61.31;100227.00;5003576;28;45446;-54
2022/04/06 07:13:38;;;;;;;;;1.00;1.00;;;;;10.61;61.33;100210.41;5076073;28;45328;-51
2022/04/06 07:16:05;;;;;;;;;2.00;2.00;;;;;10.71;61.61;100223.13;5077248;27;46079;-54
2022/04/06 07:18:31;;;;;;;;;2.00;2.00;;;;;10.72;60.98;100214.19;5075871;27;45259;-58
2022/04/06 07:20:59;;;;;;;;;2.00;2.00;;;;;10.83;61.27;100225.03;5076983;27;45393;-54
2022/04/06 07:23:25;;;;;;;;;4.50;1.75;;;;;10.88;60.92;100225.56;5076474;28;45541;-50
2022/04/06 07:25:50;;;;;;;;;2.00;2.00;;;;;10.83;60.45;100214.38;5077626;27;45316;-50
2022/04/06 07:28:16;;;;;;;;;2.50;1.25;;;;;10.95;60.62;100224.25;5093086;27;45284;-55
2022/04/06 07:30:41;;;;;;;;;2.00;2.00;;;;;10.95;60.35;100231.38;5077277;27;45741;-52
2022/04/06 07:33:09;;;;;;;;;2.00;2.00;;;;;10.93;60.42;100228.78;5077593;27;45507;-48
2022/04/06 07:35:35;;;;;;;;;1.25;1.25;;;;;10.95;60.43;100218.94;5075886;27;46073;-53
2022/04/06 07:38:01;;;;;;;;;3.00;1.75;;;;;11.01;60.26;100223.84;5092861;27;45988;-50
2022/04/06 07:40:26;;;;;;;;;1.75;1.75;;;;;11.03;60.92;100221.09;5077222;27;45794;-49
2022/04/06 07:42:52;;;;;;;;;1.00;1.00;;;;;11.00;59.59;100222.13;5077428;27;45471;-53
2022/04/06 07:45:20;;;;;;;;;0.00;0.00;;;;;11.02;59.95;100219.38;5076946;27;45466;-51
2022/04/06 07:47:48;;;;;;;;;1.00;1.00;;;;;11.06;60.26;100215.56;5061109;27;45210;-54
2022/04/06 07:50:15;;;;;;;;;1.00;1.00;;;;;11.11;60.43;100224.97;5076576;27;45557;-55
2022/04/06 07:52:41;;;;;;;;;3.00;2.00;;;;;11.14;59.91;100219.44;5003022;27;45520;-58
2022/04/06 07:55:08;;;;;;;;;2.00;2.00;;;;;11.18;59.52;100212.97;5027243;28;46220;-53
2022/04/06 07:57:35;;;;;;;;;0.50;0.50;;;;;11.27;59.69;100219.50;5001062;28;45526;-52
2022/04/06 08:00:09;;;;;;;;;1.50;1.00;;;;;11.32;59.85;100203.22;4974112;28;45217;-56
2022/04/06 08:02:34;;;;;;;;;2.00;0.50;;;;;11.39;59.46;100216.06;4990121;28;45509;-56
2022/04/06 08:05:00;;;;;;;;;2.00;1.50;;;;;11.38;59.22;100197.53;5023528;27;46731;-52
2022/04/06 08:07:26;;;;;;;;;1.00;1.00;;;;;11.41;59.01;100199.97;4974312;28;45329;-56
2022/04/06 08:09:51;;;;;;;;;2.00;2.00;;;;;11.45;59.05;100201.47;5019754;27;45384;-54
2022/04/06 08:12:16;;;;;;;;;2.00;2.00;;;;;11.42;59.00;100188.38;4986300;27;45442;-53
2022/04/06 08:14:42;;;;;;;;;1.75;0.50;;;;;11.50;59.16;100188.72;4956404;28;45358;-55
2022/04/06 08:17:08;;;;;;;;;2.00;2.00;;;;;11.50;58.27;100186.91;4972509;28;46621;-56
2022/04/06 08:19:33;;;;;;;;;0.00;0.00;;;;;11.55;58.68;100183.09;4975403;28;45528;-56
2022/04/06 08:21:58;;;;;;;;;2.00;1.00;;;;;11.59;58.29;100177.47;4971394;28;45443;-55
2022/04/06 08:24:24;;;;;;;;;2.00;1.00;;;;;11.62;58.63;100187.06;4982452;28;45541;-55
2022/04/06 08:26:49;;;;;;;;;2.00;2.00;;;;;11.63;58.40;100176.31;4954032;28;45424;-53
2022/04/06 08:29:15;;;;;;;;;2.67;1.00;;;;;11.63;58.31;100189.63;4972300;28;45401;-52
2022/04/06 08:31:41;;;;;;;;;2.67;1.33;;;;;11.70;58.13;100182.06;4965647;28;45317;-50
2022/04/06 08:34:07;;;;;;;;;1.00;1.00;;;;;11.74;57.97;100170.25;4983515;28;45333;-52
2022/04/06 08:36:33;;;;;;;;;2.25;1.00;;;;;11.80;57.70;100180.50;4994467;27;45521;-54
2022/04/06 08:39:01;;;;;;;;;0.00;0.00;;;;;11.81;58.28;100182.22;4974166;28;45891;-56
2022/04/06 08:41:28;;;;;;;;;1.00;1.00;;;;;11.86;57.87;100174.78;4976144;28;45410;-51
2022/04/06 08:43:54;;;;;;;;;2.00;2.00;;;;;11.89;58.14;100179.06;5025407;28;45485;-50
2022/04/06 08:46:21;;;;;;;;;3.67;1.67;;;;;11.89;57.52;100174.56;5079435;27;45381;-55
2022/04/06 08:48:54;;;;;;;;;3.75;2.00;;;;;11.96;57.09;100172.31;5065780;28;45487;-53
2022/04/06 08:51:20;;;;;;;;;1.00;1.00;;;;;12.02;57.48;100163.94;4975461;28;45410;-53
2022/04/06 08:53:47;;;;;;;;;2.67;1.00;;;;;12.04;56.79;100167.34;4976541;28;45395;-53
2022/04/06 08:56:13;;;;;;;;;3.00;3.00;;;;;12.10;57.11;100161.56;4974858;27;45508;-56
2022/04/06 08:58:41;;;;;;;;;2.67;1.00;;;;;12.15;56.97;100170.13;4976179;28;45436;-55
2022/04/06 09:01:07;;;;;;;;;1.67;1.67;;;;;12.20;56.88;100161.78;4976029;28;45597;-51
2022/04/06 09:03:34;;;;;;;;;3.33;1.67;;;;;12.18;56.14;100159.25;4975854;27;45367;-52
2022/04/06 09:06:08;;;;;;;;;2.67;1.00;;;;;12.26;55.89;100161.38;4975103;28;45558;-51
2022/04/06 09:08:42;;;;;;;;;2.00;2.00;;;;;12.29;56.65;100164.69;4975752;28;45518;-49
2022/04/06 09:11:10;;;;;;;;;2.00;1.00;;;;;12.32;56.20;100161.78;5013387;28;45362;-55
2022/04/06 09:13:37;;;;;;;;;4.00;3.00;;;;;12.43;56.44;100165.53;4978217;27;46064;-52
2022/04/06 09:16:04;;;;;;;;;2.67;1.00;;;;;12.39;56.24;100156.91;4981875;28;45423;-56
2022/04/06 09:18:38;;;;;;;;;1.67;1.67;;;;;12.44;56.26;100164.56;4993973;27;45786;-52
2022/04/06 09:21:04;;;;;;;;;2.00;2.00;;;;;12.48;55.78;100160.72;4995307;27;45306;-51
2022/04/06 09:23:31;;;;;;;;;1.67;1.67;;;;;12.47;55.46;100164.34;4995062;27;45388;-50
2022/04/06 09:26:13;;;;;;;;;2.00;2.00;;;;;12.50;56.05;100164.13;4995132;28;45387;-53
2022/04/06 09:28:42;;;;;;;;;4.00;3.00;;;;;12.50;55.72;100164.13;4991872;28;45453;-52
2022/04/06 09:31:08;;;;;;;;;2.33;1.67;;;;;12.48;55.70;100161.56;4968097;28;45612;-49
2022/04/06 09:33:39;;;;;;;;;4.33;2.33;;;;;12.49;55.83;100163.25;4968497;28;45410;-56
2022/04/06 09:36:19;;;;;;;;;1.00;1.00;;;;;12.54;56.04;100155.81;4970823;28;45404;-52
2022/04/06 09:38:48;;;;;;;;;3.33;3.00;;;;;12.55;55.68;100154.00;5000971;28;45547;-52
2022/04/06 09:41:15;;;;;;;;;6.67;2.00;;;;;12.56;55.58;100145.88;4991083;27;45672;-52
2022/04/06 09:43:46;;;;;;;;;3.00;2.00;;;;;12.61;55.65;100156.19;4973937;28;45782;-51
2022/04/06 09:49:08;;;;;;;;;4.67;3.00;;;;;12.68;55.71;100153.00;5005092;28;45386;-52
2022/04/06 09:51:35;;;;;;;;;3.67;3.00;;;;;12.75;55.03;100158.72;5078608;27;45460;-54
2022/04/06 09:54:06;;;;;;;;;3.00;3.00;;;;;12.76;55.23;100163.13;5026079;28;47620;-53
2022/04/06 09:56:32;;;;;;;;;2.00;2.00;;;;;12.80;54.91;100163.75;4975628;28;45331;-52
2022/04/06 09:58:59;;;;;;;;;3.67;3.67;;;;;12.75;54.92;100157.88;4978965;28;45414;-53
2022/04/06 10:01:33;;;;;;;;;3.33;3.00;;;;;12.76;55.22;100155.13;4995837;27;45289;-53
2022/04/06 10:04:10;;;;;;;;;6.67;3.33;;;;;12.79;54.92;100162.91;4985341;27;45511;-53
2022/04/06 10:06:37;;;;;;;;;6.00;2.00;;;;;12.80;55.23;100161.09;4995371;28;45246;-54
2022/04/06 10:09:08;;;;;;;;;3.00;1.00;;;;;12.80;55.51;100161.94;4995156;27;45184;-54
2022/04/06 10:11:33;;;;;;;;;5.00;2.33;;;;;12.65;54.92;100152.38;5004686;28;45457;-50
2022/04/06 10:14:00;;;;;;;;;3.00;3.00;;;;;12.67;54.88;100161.97;4971665;27;47281;-49
2022/04/06 10:16:27;;;;;;;;;1.00;1.00;;;;;12.66;55.26;100148.75;4975352;28;45488;-54
2022/04/06 10:18:54;;;;;;;;;2.00;2.00;;;;;12.78;54.75;100150.53;4976892;28;45390;-52
2022/04/06 10:21:34;;;;;;;;;2.00;2.00;;;;;12.80;54.90;100145.94;4976794;28;45395;-57
2022/04/06 10:24:59;;;;;;;;;2.00;2.00;;;;;12.80;54.57;100137.94;4975407;27;45551;-53
2022/04/06 10:27:29;;;;;;;;;2.00;2.00;;;;;12.88;54.93;100132.88;5035846;28;45438;-55
2022/04/06 10:30:06;;;;;;;;;3.00;3.00;;;;;12.93;54.31;100130.72;5018939;28;45499;-56
2022/04/06 10:32:35;;;;;;;;;3.00;3.00;;;;;12.98;54.62;100128.56;4985819;28;45458;-54
2022/04/06 10:35:26;;;;;;;;;3.00;3.00;;;;;13.06;54.90;100119.16;4974919;28;45637;-52
2022/04/06 10:37:58;;;;;;;;;3.00;3.00;;;;;13.16;54.24;100113.03;4974921;28;45523;-53
2022/04/06 10:40:44;;;;;;;;;2.33;0.33;;;;;13.16;54.50;100115.69;4975118;28;45328;-52
2022/04/06 10:43:43;;;;;;;;;8.00;3.00;;;;;13.18;54.46;100110.25;4975330;28;45456;-52
2022/04/06 10:46:17;;;;;;;;;3.00;3.00;;;;;13.18;54.28;100107.56;4994768;28;46135;-50
2022/04/06 10:49:17;;;;;;;;;3.00;3.00;;;;;13.13;54.72;100104.38;4974772;28;45551;-52
2022/04/06 10:51:47;;;;;;;;;4.00;1.00;;;;;13.09;54.75;100087.75;5006400;28;45344;-52
2022/04/06 10:54:12;;;;;;;;;7.00;3.00;;;;;13.06;54.57;100103.13;4975030;28;45349;-51
2022/04/06 10:56:49;;;;;;;;;7.67;5.33;;;;;12.97;55.20;100091.31;4974861;28;45382;-50
2022/04/06 10:59:19;;;;;;;;;4.00;4.00;;;;;12.93;55.19;100087.19;4975030;28;45322;-49
2022/04/06 11:01:51;;;;;;;;;3.00;3.00;;;;;12.88;55.35;100084.81;4974816;28;45794;-51
2022/04/06 11:04:23;;;;;;;;;4.00;3.00;;;;;12.92;55.12;100085.47;4975176;28;45476;-50
2022/04/06 11:06:57;;;;;;;;;5.00;3.67;;;;;12.94;55.48;100070.19;4957465;28;46249;-49
2022/04/06 11:12:15;;;;;;;;;4.00;4.00;;;;;13.11;55.29;100063.59;5054529;28;45415;-54
2022/04/06 11:14:45;;;;;;;;;9.33;6.00;;;;;13.18;55.08;100063.06;5077649;27;45452;-49
2022/04/06 11:19:58;;;;;;;;;6.33;4.00;;;;;13.23;55.32;100058.22;5077564;27;45234;-49
2022/04/06 11:22:24;;;;;;;;;5.00;4.00;;;;;13.24;55.14;100051.06;5093305;27;45255;-51
2022/04/06 11:24:50;;;;;;;;;6.33;6.33;;;;;13.24;55.37;100038.56;5059354;27;45678;-51
2022/04/06 11:27:29;;;;;;;;;6.67;4.33;;;;;13.37;55.67;100035.81;5077270;27;45447;-50
2022/04/06 11:30:03;;;;;;;;;4.00;4.00;;;;;13.34;54.70;100028.03;5076282;28;45329;-51
2022/04/06 11:32:29;;;;;;;;;7.00;6.67;;;;;13.39;55.02;100023.16;5078331;27;45326;-56
2022/04/06 11:35:09;;;;;;;;;7.33;5.67;;;;;13.38;55.52;100024.16;5076394;28;45343;-53
2022/04/06 11:37:42;;;;;;;;;5.33;4.00;;;;;13.38;55.10;100024.16;5077606;27;45400;-54
2022/04/06 11:40:09;;;;;;;;;5.33;3.00;;;;;13.32;55.57;100013.09;5092533;27;45252;-50